createdAt,value
2018-09-28T00:00:17.817Z,74.11
2018-09-28T00:02:46.131Z,74.48
2018-09-28T00:05:14.458Z,74.80
2018-09-28T00:07:42.464Z,75.21
2018-09-28T00:10:11.090Z,75.36
2018-09-28T00:12:39.411Z,75.08
2018-09-28T00:15:07.791Z,75.24
2018-09-28T00:17:35.504Z,74.92
2018-09-28T00:20:03.817Z,74.67
2018-09-28T00:22:32.137Z,74.62
2018-09-28T00:25:00.451Z,74.23
2018-09-28T00:27:29.334Z,74.19
2018-09-28T00:29:57.073Z,73.89
2018-09-28T00:32:25.962Z,73.48
2018-09-28T00:34:54.273Z,73.45
2018-09-28T00:37:22.602Z,73.31
2018-09-28T00:39:50.921Z,73.37
2018-09-28T00:42:19.039Z,73.15
2018-09-28T00:44:47.542Z,73.08
2018-09-28T00:47:15.857Z,73.16
2018-09-28T00:49:43.592Z,73.09
2018-09-28T00:52:12.478Z,72.99
2018-09-28T00:54:40.802Z,72.54
2018-09-28T00:57:09.105Z,72.57
2018-09-28T00:59:37.468Z,72.49
2018-09-28T01:02:05.862Z,72.41
2018-09-28T01:04:34.166Z,72.25
2018-09-28T01:07:02.583Z,72.35
2018-09-28T01:09:30.922Z,72.33
2018-09-28T01:11:58.657Z,72.27
2018-09-28T01:14:26.976Z,72.16
2018-09-28T01:16:55.288Z,71.90
2018-09-28T01:19:24.204Z,71.76
2018-09-28T01:21:52.520Z,71.83
2018-09-28T01:24:20.859Z,71.86
2018-09-28T01:26:48.603Z,72.10
2018-09-28T01:29:17.513Z,72.18
2018-09-28T01:31:45.816Z,72.30
2018-09-28T01:34:13.551Z,72.25
2018-09-28T01:36:41.862Z,72.29
2018-09-28T01:39:10.181Z,72.27
2018-09-28T01:41:39.083Z,72.42
2018-09-28T01:44:06.819Z,72.85
2018-09-28T01:46:35.707Z,74.87
2018-09-28T01:49:03.876Z,88.96
2018-09-28T01:51:32.338Z,95.32
2018-09-28T01:54:00.067Z,97.85
2018-09-28T01:56:28.957Z,98.77
2018-09-28T01:58:57.265Z,99.99
2018-09-28T02:01:25.588Z,100.00
2018-09-28T02:03:53.914Z,100.00
2018-09-28T02:06:22.247Z,100.00
2018-09-28T02:08:49.992Z,100.00
2018-09-28T02:11:18.885Z,100.00
2018-09-28T02:13:46.635Z,100.00
2018-09-28T02:16:15.537Z,100.00
2018-09-28T02:18:43.870Z,100.00
2018-09-28T02:21:11.629Z,100.00
2018-09-28T02:23:40.535Z,100.00
2018-09-28T02:26:08.283Z,100.00
2018-09-28T02:28:36.609Z,100.00
2018-09-28T02:31:04.932Z,100.00
2018-09-28T02:33:33.838Z,100.00
2018-09-28T02:36:01.580Z,100.00
2018-09-28T02:38:30.718Z,100.00
2018-09-28T02:40:58.807Z,100.00
2018-09-28T02:43:27.124Z,100.00
2018-09-28T02:45:55.450Z,100.00
2018-09-28T02:48:23.778Z,100.00
2018-09-28T02:50:51.529Z,100.00
2018-09-28T02:53:20.452Z,100.00
2018-09-28T02:55:48.178Z,100.00
2018-09-28T02:58:17.088Z,100.00
2018-09-28T03:00:45.417Z,100.00
2018-09-28T03:03:13.740Z,100.00
2018-09-28T03:05:41.492Z,100.00
2018-09-28T03:08:09.813Z,99.85
2018-09-28T03:10:38.124Z,98.86
2018-09-28T03:13:07.037Z,99.43
2018-09-28T03:15:35.352Z,99.20
2018-09-28T03:18:03.102Z,98.90
2018-09-28T03:20:31.426Z,98.39
2018-09-28T03:23:00.329Z,97.80
2018-09-28T03:25:28.636Z,97.32
2018-09-28T03:30:24.687Z,97.79
2018-09-28T03:32:53.591Z,96.92
2018-09-28T03:35:21.338Z,96.57
2018-09-28T03:37:49.669Z,96.87
2018-09-28T03:40:18.549Z,96.09
2018-09-28T03:42:46.297Z,95.69
2018-09-28T03:45:15.189Z,96.17
2018-09-28T03:47:43.503Z,95.40
2018-09-28T03:50:11.236Z,94.49
2018-09-28T03:52:40.129Z,94.97
2018-09-28T03:55:08.440Z,95.07
2018-09-28T03:57:36.185Z,93.84
2018-09-28T04:00:05.077Z,94.28
2018-09-28T04:02:33.390Z,92.69
2018-09-28T04:05:01.132Z,91.47
2018-09-28T04:07:30.025Z,91.43
2018-09-28T04:09:57.773Z,90.84
2018-09-28T04:12:26.709Z,90.50
2018-09-28T04:14:54.435Z,90.90
2018-09-28T04:17:22.727Z,90.03
2018-09-28T04:19:51.621Z,88.25
2018-09-28T04:22:19.361Z,87.90
2018-09-28T04:24:48.278Z,87.16
2018-09-28T04:27:16.597Z,85.29
2018-09-28T04:29:44.907Z,88.01
2018-09-28T04:32:12.637Z,87.63
2018-09-28T04:34:41.527Z,85.63
2018-09-28T04:37:09.263Z,85.97
2018-09-28T04:39:38.157Z,86.54
2018-09-28T04:42:06.466Z,86.41
2018-09-28T04:44:34.206Z,86.59
2018-09-28T04:47:03.129Z,86.08
2018-09-28T04:49:30.870Z,86.88
2018-09-28T04:51:59.191Z,87.09
2018-09-28T04:54:28.090Z,85.29
2018-09-28T04:56:55.818Z,85.49
2018-09-28T04:59:24.146Z,84.08
2018-09-28T05:01:53.035Z,85.58
2018-09-28T05:04:21.361Z,84.95
2018-09-28T05:06:49.696Z,85.60
2018-09-28T05:09:18.029Z,83.03
2018-09-28T05:11:46.354Z,84.35
2018-09-28T05:14:14.677Z,83.57
2018-09-28T05:16:43.000Z,83.50
2018-09-28T05:19:11.308Z,81.66
2018-09-28T05:21:39.629Z,80.63
2018-09-28T05:24:07.953Z,81.00
2018-09-28T05:26:35.709Z,80.84
2018-09-28T05:29:04.033Z,80.46
2018-09-28T05:31:33.010Z,80.09
2018-09-28T05:34:01.310Z,80.78
2018-09-28T05:36:29.623Z,81.97
2018-09-28T05:38:57.360Z,78.28
2018-09-28T05:41:25.684Z,77.90
2018-09-28T05:43:54.629Z,79.71
2018-09-28T05:46:22.933Z,77.80
2018-09-28T05:48:51.264Z,76.42
2018-09-28T05:51:19.023Z,75.05
2018-09-28T05:53:47.929Z,74.42
2018-09-28T05:56:15.661Z,72.86
2018-09-28T05:58:44.563Z,73.28
2018-09-28T06:01:14.286Z,73.29
2018-09-28T06:03:43.188Z,73.18
2018-09-28T06:06:11.506Z,73.26
2018-09-28T06:08:39.500Z,72.72
2018-09-28T06:11:08.171Z,72.71
2018-09-28T06:13:35.918Z,73.08
2018-09-28T06:16:04.818Z,72.24
2018-09-28T06:18:33.227Z,71.99
2018-09-28T06:21:01.495Z,71.60
2018-09-28T06:23:29.236Z,70.81
2018-09-28T06:25:57.602Z,70.37
2018-09-28T06:28:25.897Z,69.98
2018-09-28T06:30:54.811Z,68.97
2018-09-28T06:33:23.122Z,69.13
2018-09-28T06:35:51.476Z,68.82
2018-09-28T06:38:19.778Z,68.63
2018-09-28T06:40:48.146Z,68.42
2018-09-28T06:43:16.429Z,67.88
2018-09-28T06:45:44.776Z,68.75
2018-09-28T06:48:12.515Z,68.39
2018-09-28T06:50:41.414Z,68.12
2018-09-28T06:53:09.177Z,67.53
2018-09-28T06:55:38.086Z,67.69
2018-09-28T06:58:06.568Z,67.27
2018-09-28T07:00:34.855Z,66.92
2018-09-28T07:03:03.173Z,66.59
2018-09-28T07:05:30.919Z,66.37
2018-09-28T07:07:59.241Z,66.23
2018-09-28T07:10:27.553Z,66.99
2018-09-28T07:12:55.890Z,65.79
2018-09-28T07:15:24.794Z,65.65
2018-09-28T07:17:52.573Z,64.70
2018-09-28T07:20:21.451Z,64.82
2018-09-28T07:22:49.192Z,65.12
2018-09-28T07:25:18.191Z,64.48
2018-09-28T07:27:46.417Z,64.54
2018-09-28T07:30:14.773Z,64.59
2018-09-28T07:32:42.503Z,63.86
2018-09-28T07:35:10.818Z,62.44
2018-09-28T07:37:39.722Z,62.20
2018-09-28T07:40:08.046Z,61.38
2018-09-28T07:42:36.378Z,61.73
2018-09-28T07:45:04.689Z,60.75
2018-09-28T07:47:32.492Z,61.64
2018-09-28T07:50:01.399Z,62.07
2018-09-28T07:52:29.716Z,61.25
2018-09-28T07:54:57.464Z,61.14
2018-09-28T07:57:26.368Z,61.17
2018-09-28T07:59:54.679Z,60.95
2018-09-28T08:02:23.003Z,59.86
2018-09-28T08:04:51.338Z,57.65
2018-09-28T08:07:19.638Z,58.75
2018-09-28T08:09:47.986Z,59.00
2018-09-28T08:12:16.310Z,58.92
2018-09-28T08:14:44.629Z,59.23
2018-09-28T08:17:12.945Z,58.24
2018-09-28T08:19:41.275Z,58.40
2018-09-28T08:22:09.020Z,57.99
2018-09-28T08:24:37.967Z,58.08
2018-09-28T08:27:05.666Z,57.91
2018-09-28T08:29:34.564Z,57.51
2018-09-28T08:32:02.911Z,57.70
2018-09-28T08:34:31.241Z,57.59
2018-09-28T08:36:58.985Z,57.77
2018-09-28T08:39:27.893Z,56.81
2018-09-28T08:41:55.677Z,56.96
2018-09-28T08:44:24.534Z,56.44
2018-09-28T08:46:52.849Z,55.72
2018-09-28T08:49:21.257Z,55.41
2018-09-28T08:51:49.767Z,55.19
2018-09-28T08:54:18.357Z,55.64
2018-09-28T08:56:46.746Z,56.61
2018-09-28T08:59:15.075Z,57.32
2018-09-28T09:01:43.406Z,60.47
2018-09-28T09:04:11.719Z,60.92
2018-09-28T09:06:40.043Z,61.47
2018-09-28T09:09:08.367Z,61.12
2018-09-28T09:11:36.105Z,62.09
2018-09-28T09:14:04.415Z,63.08
2018-09-28T09:16:32.737Z,63.17
2018-09-28T09:19:01.652Z,62.78
2018-09-28T09:21:29.980Z,62.74
2018-09-28T09:23:57.777Z,62.31
2018-09-28T09:26:26.637Z,61.92
2018-09-28T09:28:54.941Z,61.57
2018-09-28T09:31:22.683Z,60.58
2018-09-28T09:33:51.596Z,60.08
2018-09-28T09:36:19.917Z,55.94
2018-09-28T09:38:47.676Z,58.04
2018-09-28T09:41:16.795Z,56.12
2018-09-28T09:43:44.314Z,56.64
2018-09-28T09:46:13.216Z,55.74
2018-09-28T09:48:40.956Z,56.08
2018-09-28T09:51:09.274Z,54.35
2018-09-28T09:53:38.652Z,54.75
2018-09-28T09:56:06.980Z,54.21
2018-09-28T09:58:35.295Z,54.65
2018-09-28T10:01:03.619Z,53.98
2018-09-28T10:03:31.953Z,54.09
2018-09-28T10:05:59.723Z,54.89
2018-09-28T10:08:28.625Z,55.59
2018-09-28T10:10:56.373Z,55.89
2018-09-28T10:13:24.748Z,56.08
2018-09-28T10:15:53.651Z,56.01
2018-09-28T10:18:21.965Z,55.73
2018-09-28T10:20:49.702Z,55.88
2018-09-28T10:23:18.028Z,56.38
2018-09-28T10:25:47.083Z,56.03
2018-09-28T10:28:15.446Z,55.77
2018-09-28T10:30:43.129Z,56.11
2018-09-28T10:33:12.032Z,56.02
2018-09-28T10:35:40.348Z,55.94
2018-09-28T10:38:08.708Z,55.06
2018-09-28T10:40:37.147Z,55.92
2018-09-28T10:43:04.802Z,54.62
2018-09-28T10:45:33.137Z,55.30
2018-09-28T10:48:02.047Z,55.35
2018-09-28T10:50:29.890Z,55.51
2018-09-28T10:52:58.141Z,55.19
2018-09-28T10:55:26.994Z,55.31
2018-09-28T10:57:54.736Z,54.67
2018-09-28T11:00:23.677Z,53.14
2018-09-28T11:02:51.960Z,52.88
2018-09-28T11:05:20.280Z,53.62
2018-09-28T11:07:48.615Z,53.32
2018-09-28T11:10:16.373Z,53.36
2018-09-28T11:12:45.250Z,52.51
2018-09-28T11:15:13.016Z,51.29
2018-09-28T11:17:41.347Z,51.63
2018-09-28T11:20:10.240Z,51.58
2018-09-28T11:22:38.553Z,52.22
2018-09-28T11:25:06.304Z,52.72
2018-09-28T11:27:34.681Z,52.12
2018-09-28T11:30:03.512Z,52.37
2018-09-28T11:32:31.825Z,51.45
2018-09-28T11:35:00.161Z,51.52
2018-09-28T11:37:28.547Z,51.61
2018-09-28T11:39:56.860Z,49.75
2018-09-28T11:42:24.595Z,49.74
2018-09-28T11:44:53.720Z,49.39
2018-09-28T11:47:21.237Z,49.48
2018-09-28T11:49:50.148Z,49.19
2018-09-28T11:52:17.889Z,48.16
2018-09-28T11:54:46.789Z,48.79
2018-09-28T11:57:15.122Z,49.07
2018-09-28T11:59:42.846Z,47.86
2018-09-28T12:02:11.755Z,48.69
2018-09-28T12:04:40.074Z,47.68
2018-09-28T12:07:08.480Z,48.30
2018-09-28T12:09:36.755Z,48.22
2018-09-28T12:12:05.062Z,47.00
2018-09-28T12:14:32.899Z,46.44
2018-09-28T12:17:01.227Z,46.65
2018-09-28T12:19:29.551Z,46.35
2018-09-28T12:21:58.462Z,45.39
2018-09-28T12:24:26.210Z,45.72
2018-09-28T12:26:54.518Z,46.35
2018-09-28T12:29:23.445Z,47.39
2018-09-28T12:31:51.775Z,46.49
2018-09-28T12:34:20.103Z,46.91
2018-09-28T12:36:47.848Z,48.37
2018-09-28T12:39:16.310Z,49.39
2018-09-28T12:41:45.087Z,49.20
2018-09-28T12:44:12.878Z,49.49
2018-09-28T12:46:41.176Z,49.54
2018-09-28T12:49:10.076Z,50.21
2018-09-28T12:51:38.434Z,50.58
2018-09-28T12:54:06.765Z,50.90
2018-09-28T12:56:34.536Z,50.08
2018-09-28T12:59:02.841Z,50.24
2018-09-28T13:01:31.161Z,49.81
2018-09-28T13:04:00.076Z,50.05
2018-09-28T13:06:28.467Z,49.19
2018-09-28T13:08:56.167Z,48.83
2018-09-28T13:11:25.056Z,47.21
2018-09-28T13:13:53.375Z,45.22
2018-09-28T13:16:21.933Z,44.50
2018-09-28T13:18:50.372Z,44.99
2018-09-28T13:21:18.009Z,41.67
2018-09-28T13:23:46.910Z,41.35
2018-09-28T13:26:18.615Z,41.25
2018-09-28T13:28:46.927Z,41.92
2018-09-28T13:31:15.465Z,43.32
2018-09-28T13:33:43.549Z,44.64
2018-09-28T13:36:11.319Z,42.82
2018-09-28T13:38:40.295Z,42.17
2018-09-28T13:41:07.953Z,41.26
2018-09-28T13:43:36.269Z,42.14
2018-09-28T13:46:05.202Z,40.78
2018-09-28T13:48:32.908Z,39.37
2018-09-28T13:51:01.812Z,38.70
2018-09-28T13:53:30.141Z,40.90
2018-09-28T13:55:58.455Z,44.07
2018-09-28T13:58:26.826Z,45.63
2018-09-28T14:00:54.508Z,47.18
2018-09-28T14:03:22.818Z,48.36
2018-09-28T14:05:51.725Z,48.40
2018-09-28T14:08:20.082Z,49.32
2018-09-28T14:10:48.432Z,50.09
2018-09-28T14:13:16.109Z,49.53
2018-09-28T14:15:45.013Z,49.33
2018-09-28T14:18:13.333Z,48.93
2018-09-28T14:20:41.677Z,48.66
2018-09-28T14:23:09.974Z,49.41
2018-09-28T14:25:38.285Z,50.38
2018-09-28T14:28:06.786Z,50.75
2018-09-28T14:30:34.919Z,50.66
2018-09-28T14:33:02.661Z,50.64
2018-09-28T14:35:30.993Z,49.39
2018-09-28T14:37:59.945Z,44.94
2018-09-28T14:40:28.342Z,41.71
2018-09-28T14:42:56.658Z,37.77
2018-09-28T14:45:24.997Z,34.68
2018-09-28T14:47:53.320Z,33.01
2018-09-28T14:50:21.695Z,32.43
2018-09-28T14:52:50.024Z,32.64
2018-09-28T14:55:18.288Z,35.87
2018-09-28T14:57:46.622Z,39.40
2018-09-28T15:00:14.424Z,41.53
2018-09-28T15:02:43.297Z,43.34
2018-09-28T15:05:11.607Z,44.58
2018-09-28T15:07:39.402Z,45.30
2018-09-28T15:10:08.280Z,46.05
2018-09-28T15:12:36.624Z,46.51
2018-09-28T15:15:04.898Z,46.91
2018-09-28T15:17:32.641Z,48.07
2018-09-28T15:20:00.959Z,47.94
2018-09-28T15:22:29.857Z,48.51
2018-09-28T15:24:58.199Z,48.77
2018-09-28T15:27:26.551Z,48.20
2018-09-28T15:29:54.882Z,47.93
2018-09-28T15:32:22.650Z,48.56
2018-09-28T15:34:51.553Z,48.84
2018-09-28T15:37:19.885Z,49.55
2018-09-28T15:39:47.632Z,49.78
2018-09-28T15:42:16.529Z,50.39
2018-09-28T15:44:44.893Z,51.64
2018-09-28T15:47:13.228Z,51.92
2018-09-28T15:49:41.550Z,52.11
2018-09-28T15:52:09.294Z,52.38
2018-09-28T15:54:37.635Z,52.80
2018-09-28T15:57:06.542Z,53.01
2018-09-28T15:59:34.874Z,53.28
2018-09-28T16:02:03.297Z,54.10
2018-09-28T16:04:31.388Z,54.58
2018-09-28T16:06:59.838Z,54.56
2018-09-28T16:09:28.155Z,54.77
2018-09-28T16:11:56.530Z,54.87
2018-09-28T16:14:24.806Z,55.05
2018-09-28T16:16:53.740Z,55.27
2018-09-28T16:19:21.461Z,55.70
2018-09-28T16:21:49.818Z,55.83
2018-09-28T16:24:18.137Z,56.57
2018-09-28T16:26:45.887Z,56.72
2018-09-28T16:29:14.806Z,57.50
2018-09-28T16:31:43.143Z,57.79
2018-09-28T16:34:10.950Z,58.10
2018-09-28T16:36:39.262Z,58.31
2018-09-28T16:39:07.561Z,58.60
2018-09-28T16:41:36.475Z,58.78
2018-09-28T16:44:04.809Z,59.10
2018-09-28T16:46:32.598Z,59.30
2018-09-28T16:49:01.862Z,60.10
2018-09-28T16:51:29.638Z,59.95
2018-09-28T16:53:58.553Z,60.04
2018-09-28T16:56:26.915Z,60.40
2018-09-28T16:58:55.258Z,60.41
2018-09-28T17:01:23.017Z,61.38
2018-09-28T17:03:52.219Z,62.81
2018-09-28T17:06:20.552Z,62.13
2018-09-28T17:08:48.372Z,62.91
2018-09-28T17:11:17.238Z,63.53
2018-09-28T17:13:45.798Z,64.28
2018-09-28T17:16:13.901Z,64.06
2018-09-28T17:18:42.234Z,63.84
2018-09-28T17:21:10.963Z,64.29
2018-09-28T17:23:39.301Z,65.99
2018-09-28T17:26:07.636Z,67.18
2018-09-28T17:28:36.036Z,67.77
2018-09-28T17:31:04.319Z,66.69
2018-09-28T17:33:32.661Z,67.47
2018-09-28T17:36:01.515Z,68.33
2018-09-28T17:38:29.561Z,67.80
2018-09-28T17:40:57.904Z,68.33
2018-09-28T17:43:25.661Z,68.88
2018-09-28T17:45:54.602Z,67.74
2018-09-28T17:48:23.964Z,67.92
2018-09-28T17:50:51.490Z,67.61
2018-09-28T17:53:20.435Z,66.82
2018-09-28T17:55:48.782Z,66.65
2018-09-28T17:58:16.510Z,66.39
2018-09-28T18:00:45.423Z,66.18
2018-09-28T18:03:13.775Z,66.05
2018-09-28T18:05:42.127Z,66.23
2018-09-28T18:08:09.926Z,66.60
2018-09-28T18:10:38.258Z,67.35
2018-09-28T18:13:06.607Z,67.25
2018-09-28T18:15:34.944Z,67.20
2018-09-28T18:18:03.891Z,66.93
2018-09-28T18:20:32.248Z,67.04
2018-09-28T18:23:00.591Z,67.04
2018-09-28T18:25:28.374Z,67.07
2018-09-28T18:27:57.286Z,67.11
2018-09-28T18:30:25.643Z,66.73
2018-09-28T18:32:53.973Z,66.72
2018-09-28T18:35:21.728Z,66.90
2018-09-28T18:37:50.057Z,66.88
2018-09-28T18:40:18.974Z,66.61
2018-09-28T18:42:47.304Z,67.05
2018-09-28T18:45:15.096Z,67.29
2018-09-28T18:47:44.035Z,67.67
2018-09-28T18:50:12.557Z,68.16
2018-09-28T18:52:40.626Z,68.91
2018-09-28T18:55:09.536Z,70.19
2018-09-28T18:57:37.515Z,70.64
2018-09-28T19:00:06.214Z,71.59
2018-09-28T19:02:33.985Z,71.73
2018-09-28T19:05:02.325Z,71.34
2018-09-28T19:07:30.659Z,70.20
2018-09-28T19:09:58.994Z,69.68
2018-09-28T19:12:27.963Z,69.34
2018-09-28T19:14:56.275Z,69.49
2018-09-28T19:17:24.607Z,69.52
2018-09-28T19:19:52.979Z,69.23
2018-09-28T19:22:21.326Z,69.10
2018-09-28T19:24:49.694Z,69.16
2018-09-28T19:27:18.033Z,69.09
2018-09-28T19:29:46.372Z,69.27
2018-09-28T19:32:14.123Z,69.20
2018-09-28T19:34:43.047Z,69.04
2018-09-28T19:37:10.861Z,69.28
2018-09-28T19:39:39.737Z,69.40
2018-09-28T19:42:08.289Z,69.75
2018-09-28T19:44:36.620Z,69.58
2018-09-28T19:47:04.731Z,69.50
2018-09-28T19:49:33.278Z,69.43
2018-09-28T19:52:01.046Z,69.58
2018-09-28T19:54:29.968Z,69.76
2018-09-28T19:56:58.318Z,69.84
2018-09-28T19:59:26.631Z,70.06
2018-09-28T20:01:54.959Z,69.86
2018-09-28T20:04:23.325Z,69.98
2018-09-28T20:06:51.086Z,69.95
2018-09-28T20:09:19.995Z,70.21
2018-09-28T20:11:48.329Z,70.29
2018-09-28T20:14:16.827Z,70.52
2018-09-28T20:16:45.173Z,70.30
2018-09-28T20:19:13.515Z,70.49
2018-09-28T20:21:41.958Z,70.76
2018-09-28T20:24:10.294Z,71.48
2018-09-28T20:26:38.593Z,73.38
2018-09-28T20:29:06.968Z,74.26
2018-09-28T20:31:35.315Z,74.92
2018-09-28T20:34:03.068Z,74.61
2018-09-28T20:36:31.390Z,74.85
2018-09-28T20:39:00.347Z,74.75
2018-09-28T20:41:28.675Z,74.71
2018-09-28T20:43:57.003Z,74.66
2018-09-28T20:46:25.347Z,73.83
2018-09-28T20:48:53.695Z,73.10
2018-09-28T20:51:22.002Z,72.38
2018-09-28T20:53:50.396Z,72.02
2018-09-28T20:56:18.751Z,71.70
2018-09-28T20:58:47.089Z,71.68
2018-09-28T21:01:14.825Z,71.35
2018-09-28T21:03:43.146Z,71.36
2018-09-28T21:06:12.058Z,71.47
2018-09-28T21:08:39.789Z,71.47
2018-09-28T21:11:08.109Z,71.51
2018-09-28T21:13:37.069Z,71.64
2018-09-28T21:16:05.338Z,71.64
2018-09-28T21:18:33.085Z,71.70
2018-09-28T21:21:01.415Z,71.82
2018-09-28T21:23:29.745Z,71.53
2018-09-28T21:25:58.653Z,71.59
2018-09-28T21:28:26.983Z,71.64
2018-09-28T21:30:54.738Z,71.65
2018-09-28T21:33:23.072Z,71.65
2018-09-28T21:35:51.392Z,71.46
2018-09-28T21:38:20.291Z,71.33
2018-09-28T21:40:48.611Z,71.41
2018-09-28T21:43:16.949Z,71.23
2018-09-28T21:45:45.264Z,71.06
2018-09-28T21:48:13.004Z,70.72
2018-09-28T21:50:41.922Z,70.91
2018-09-28T21:53:10.267Z,70.99
2018-09-28T21:55:38.592Z,71.20
2018-09-28T21:58:06.938Z,71.45
2018-09-28T22:00:35.262Z,71.39
2018-09-28T22:03:03.575Z,71.54
2018-09-28T22:05:31.894Z,71.73
2018-09-28T22:08:00.217Z,71.84
2018-09-28T22:10:28.544Z,71.91
2018-09-28T22:12:56.284Z,71.91
2018-09-28T22:15:25.199Z,71.93
2018-09-28T22:17:53.518Z,72.02
2018-09-28T22:20:21.685Z,72.25
2018-09-28T22:22:49.587Z,72.03
2018-09-28T22:25:18.488Z,71.91
2018-09-28T22:27:46.808Z,71.67
2018-09-28T22:30:15.126Z,71.69
2018-09-28T22:32:43.450Z,71.75
2018-09-28T22:35:11.777Z,71.75
2018-09-28T22:37:40.101Z,71.79
2018-09-28T22:40:08.424Z,71.79
2018-09-28T22:42:36.171Z,71.85
2018-09-28T22:45:05.076Z,71.87
2018-09-28T22:47:32.823Z,72.01
2018-09-28T22:50:01.723Z,72.09
2018-09-28T22:52:30.037Z,71.94
2018-09-28T22:54:58.364Z,71.92
2018-09-28T22:57:26.695Z,71.79
2018-09-28T22:59:55.016Z,71.58
2018-09-28T23:02:23.362Z,71.67
2018-09-28T23:04:51.692Z,72.13
2018-09-28T23:07:20.011Z,72.45
2018-09-28T23:09:48.591Z,72.78
2018-09-28T23:12:16.908Z,73.02
2018-09-28T23:14:45.245Z,73.13
2018-09-28T23:17:12.988Z,73.00
2018-09-28T23:19:41.316Z,72.51
2018-09-28T23:22:09.645Z,72.58
2018-09-28T23:24:37.960Z,73.05
2018-09-28T23:27:06.875Z,72.71
2018-09-28T23:29:35.192Z,72.89
2018-09-28T23:32:02.926Z,72.72
2018-09-28T23:34:31.822Z,72.50
2018-09-28T23:37:00.140Z,72.35
2018-09-28T23:39:28.452Z,72.39
2018-09-28T23:41:56.181Z,72.49
2018-09-28T23:44:24.516Z,72.68
2018-09-28T23:46:53.419Z,72.77
2018-09-28T23:49:21.197Z,72.67
2018-09-28T23:51:49.515Z,72.51
2018-09-28T23:54:17.838Z,72.57
2018-09-28T23:56:46.735Z,72.61
2018-09-28T23:59:14.694Z,72.59
